Аэропорт: Кривой Рог. Кривой Рог

ICAO: UKDR

METAR:
2018/09/23 11:00
UKDR 231100Z 34005MPS 9999 BKN031 16/07 Q1018 R36/09//70 NOSIG
METAR:
2018/09/23 12:00
TAF UKDR 231107Z 2312/2412 34006MPS 9999 BKN030 
      BECMG 2316/2318 VRB01MPS 
      BECMG 2404/2406 18009G14MPS BKN020 SCT030CB